createdAt,value
2022-10-30T00:00:39.375Z,98584.59
2022-10-30T00:03:06.130Z,98590.94
2022-10-30T00:05:32.805Z,98584.34
2022-10-30T00:07:59.705Z,98569.16
2022-10-30T00:10:26.677Z,98573.25
2022-10-30T00:12:54.142Z,98577.47
2022-10-30T00:15:20.771Z,98581.28
2022-10-30T00:17:47.379Z,98572.81
2022-10-30T00:20:13.980Z,98577.16
2022-10-30T00:22:40.531Z,98578.16
2022-10-30T00:25:07.679Z,98572.66
2022-10-30T00:27:34.365Z,98573.34
2022-10-30T00:30:01.035Z,98579.94
2022-10-30T00:32:29.880Z,98577.03
2022-10-30T00:34:56.627Z,98576.56
2022-10-30T00:37:23.260Z,98570.09
2022-10-30T00:39:49.891Z,98575.44
2022-10-30T00:42:17.212Z,98571.81
2022-10-30T00:44:52.699Z,98576.28
2022-10-30T00:47:32.371Z,98572.91
2022-10-30T00:53:11.805Z,98563.47
2022-10-30T00:56:02.665Z,98562.31
2022-10-30T00:58:33.399Z,98556.84
2022-10-30T01:01:05.636Z,98558.25
2022-10-30T01:03:34.662Z,98560.09
2022-10-30T01:06:06.591Z,98558.25
2022-10-30T01:08:35.381Z,98548.94
2022-10-30T01:11:05.202Z,98550.50
2022-10-30T01:13:34.721Z,98551.06
2022-10-30T01:16:13.987Z,98555.47
2022-10-30T01:18:59.392Z,98559.31
2022-10-30T01:21:32.934Z,98558.69
2022-10-30T01:24:32.000Z,98553.50
2022-10-30T01:27:13.087Z,98557.00
2022-10-30T01:29:45.819Z,98557.34
2022-10-30T01:32:39.341Z,98553.13
2022-10-30T01:35:27.608Z,98548.38
2022-10-30T01:38:17.506Z,98548.22
2022-10-30T01:40:45.552Z,98543.66
2022-10-30T01:43:12.203Z,98548.16
2022-10-30T01:45:38.884Z,98548.16
2022-10-30T01:48:17.620Z,98537.47
2022-10-30T01:51:07.654Z,98541.22
2022-10-30T01:53:45.217Z,98546.06
2022-10-30T01:56:18.046Z,98529.72
2022-10-30T01:58:55.010Z,98526.75
2022-10-30T02:01:24.631Z,98522.81
2022-10-30T02:03:51.650Z,98523.66
2022-10-30T02:06:19.056Z,98514.13
2022-10-30T02:08:46.985Z,98515.25
2022-10-30T02:11:15.812Z,98522.00
2022-10-30T02:13:42.781Z,98521.28
2022-10-30T02:16:10.585Z,98518.75
2022-10-30T02:18:38.278Z,98514.81
2022-10-30T02:21:06.578Z,98510.59
2022-10-30T02:23:33.676Z,98512.81
2022-10-30T02:26:00.364Z,98511.25
2022-10-30T02:28:27.832Z,98517.44
2022-10-30T02:30:54.977Z,98520.84
2022-10-30T02:33:21.816Z,98524.22
2022-10-30T02:35:48.483Z,98520.16
2022-10-30T02:38:15.120Z,98530.44
2022-10-30T02:40:41.925Z,98512.56
2022-10-30T02:43:08.682Z,98525.34
2022-10-30T02:45:35.406Z,98525.34
2022-10-30T02:48:02.937Z,98517.19
2022-10-30T02:50:30.580Z,98518.19
2022-10-30T02:52:59.103Z,98520.16
2022-10-30T02:55:27.079Z,98518.75
2022-10-30T02:57:55.526Z,98526.19
2022-10-30T03:00:22.420Z,98533.63
2022-10-30T03:02:49.415Z,98535.06
2022-10-30T03:05:16.378Z,98535.88
2022-10-30T03:07:42.954Z,98523.94
2022-10-30T03:10:09.525Z,98527.44
2022-10-30T03:12:37.326Z,98532.94
2022-10-30T03:15:04.166Z,98527.44
2022-10-30T03:17:30.909Z,98531.94
2022-10-30T03:19:57.629Z,98529.69
2022-10-30T03:22:24.325Z,98522.56
2022-10-30T03:24:51.017Z,98531.38
2022-10-30T03:27:18.152Z,98529.38
2022-10-30T03:29:45.208Z,98528.88
2022-10-30T03:32:13.553Z,98528.16
2022-10-30T03:34:46.912Z,98523.75
2022-10-30T03:37:13.622Z,98525.19
2022-10-30T03:39:40.236Z,98522.50
2022-10-30T03:42:07.693Z,98510.56
2022-10-30T03:44:35.002Z,98523.34
2022-10-30T03:47:02.795Z,98518.44
2022-10-30T03:49:34.223Z,98514.91
2022-10-30T03:52:05.259Z,98505.38
2022-10-30T03:54:31.954Z,98499.88
2022-10-30T03:56:58.982Z,98505.22
2022-10-30T03:59:29.230Z,98512.66
2022-10-30T04:02:14.592Z,98515.50
2022-10-30T04:04:41.914Z,98508.16
2022-10-30T04:07:08.791Z,98517.97
2022-10-30T04:09:35.498Z,98518.38
2022-10-30T04:12:02.189Z,98523.00
2022-10-30T04:14:29.023Z,98521.16
2022-10-30T04:16:55.732Z,98523.25
2022-10-30T04:19:23.234Z,98527.09
2022-10-30T04:21:51.328Z,98529.91
2022-10-30T04:24:18.853Z,98517.91
2022-10-30T04:26:48.677Z,98510.09
2022-10-30T04:29:15.481Z,98506.31
2022-10-30T04:31:42.635Z,98505.22
2022-10-30T04:34:09.275Z,98494.25
2022-10-30T04:36:36.043Z,98497.59
2022-10-30T04:39:03.266Z,98498.19
2022-10-30T04:41:31.199Z,98504.19
2022-10-30T04:44:06.775Z,98491.84
2022-10-30T04:46:33.507Z,98494.41
2022-10-30T04:49:07.998Z,98497.31
2022-10-30T04:51:35.077Z,98493.41
2022-10-30T04:54:02.222Z,98487.66
2022-10-30T04:56:33.508Z,98488.78
2022-10-30T04:59:00.976Z,98490.09
2022-10-30T05:01:27.774Z,98483.91
2022-10-30T05:03:55.393Z,98476.28
2022-10-30T05:06:26.172Z,98470.28
2022-10-30T05:08:53.541Z,98469.91
2022-10-30T05:11:38.551Z,98465.56
2022-10-30T05:14:05.191Z,98474.47
2022-10-30T05:16:32.331Z,98488.22
2022-10-30T05:19:01.301Z,98473.06
2022-10-30T05:21:28.964Z,98464.59
2022-10-30T05:23:55.660Z,98478.44
2022-10-30T05:26:23.164Z,98505.19
2022-10-30T05:28:51.450Z,98510.94
2022-10-30T05:31:19.346Z,98514.41
2022-10-30T05:34:07.336Z,98500.94
2022-10-30T05:36:36.070Z,98500.72
2022-10-30T05:39:04.713Z,98493.97
2022-10-30T05:41:35.977Z,98499.19
2022-10-30T05:44:03.807Z,98482.94
2022-10-30T05:46:31.672Z,98471.25
2022-10-30T05:49:08.064Z,98481.78
2022-10-30T05:51:38.123Z,98495.91
2022-10-30T05:54:08.667Z,98501.94
2022-10-30T05:56:38.718Z,98501.44
2022-10-30T05:59:05.558Z,98502.34
2022-10-30T06:01:32.520Z,98507.19
2022-10-30T06:04:04.869Z,98514.06
2022-10-30T06:06:33.043Z,98514.41
2022-10-30T06:09:01.392Z,98516.38
2022-10-30T06:11:58.449Z,98499.25
2022-10-30T06:14:40.218Z,98499.59
2022-10-30T06:17:08.020Z,98504.97
2022-10-30T06:19:54.675Z,98504.03
2022-10-30T06:22:57.424Z,98507.75
2022-10-30T06:25:30.383Z,98522.03
2022-10-30T06:28:05.740Z,98536.78
2022-10-30T06:30:34.637Z,98530.88
2022-10-30T06:33:04.925Z,98530.81
2022-10-30T06:35:34.331Z,98534.13
2022-10-30T06:38:01.750Z,98530.78
2022-10-30T06:40:30.806Z,98538.19
2022-10-30T06:43:18.191Z,98532.03
2022-10-30T06:45:54.624Z,98525.34
2022-10-30T06:48:22.506Z,98522.72
2022-10-30T06:50:57.065Z,98522.41
2022-10-30T06:53:25.851Z,98529.84
2022-10-30T06:56:00.873Z,98525.22
2022-10-30T06:58:43.224Z,98522.66
2022-10-30T07:01:13.170Z,98534.91
2022-10-30T07:04:00.696Z,98531.06
2022-10-30T07:06:28.123Z,98543.28
2022-10-30T07:08:54.750Z,98539.38
2022-10-30T07:11:21.501Z,98538.53
2022-10-30T07:14:00.003Z,98531.69
2022-10-30T07:16:34.761Z,98531.22
2022-10-30T07:19:04.694Z,98534.00
2022-10-30T07:21:33.577Z,98535.66
2022-10-30T07:24:04.014Z,98538.31
2022-10-30T07:26:38.604Z,98535.19
2022-10-30T07:29:27.668Z,98541.97
2022-10-30T07:32:18.828Z,98538.84
2022-10-30T07:34:58.718Z,98536.91
2022-10-30T07:37:48.457Z,98534.69
2022-10-30T07:40:16.739Z,98533.09
2022-10-30T07:43:00.553Z,98523.06
2022-10-30T07:45:31.684Z,98524.28
2022-10-30T07:48:16.814Z,98528.31
2022-10-30T07:50:46.539Z,98529.78
2022-10-30T07:53:14.116Z,98538.72
2022-10-30T07:55:42.948Z,98530.91
2022-10-30T07:58:47.998Z,98525.88
2022-10-30T08:01:33.787Z,98509.50
2022-10-30T08:04:20.836Z,98512.81
2022-10-30T08:06:47.590Z,98514.66
2022-10-30T08:09:14.275Z,98522.28
2022-10-30T08:11:40.903Z,98510.34
2022-10-30T08:14:07.940Z,98516.88
2022-10-30T08:16:34.801Z,98518.63
2022-10-30T08:19:02.695Z,98527.25
2022-10-30T08:21:30.582Z,98523.38
2022-10-30T08:24:07.327Z,98528.56
2022-10-30T08:26:35.377Z,98536.50
2022-10-30T08:29:02.422Z,98527.19
2022-10-30T08:31:30.710Z,98524.47
2022-10-30T08:34:04.482Z,98509.28
2022-10-30T08:36:46.859Z,98510.09
2022-10-30T08:39:16.489Z,98521.91
2022-10-30T08:42:18.236Z,98523.84
2022-10-30T08:44:45.081Z,98529.19
2022-10-30T08:47:47.580Z,98542.59
2022-10-30T08:50:14.990Z,98544.69
2022-10-30T08:52:41.741Z,98537.03
2022-10-30T08:55:09.434Z,98533.66
2022-10-30T08:57:37.474Z,98537.59
2022-10-30T09:00:06.159Z,98537.16
2022-10-30T09:02:55.667Z,98524.09
2022-10-30T09:05:41.167Z,98520.53
2022-10-30T09:08:31.088Z,98530.56
2022-10-30T09:11:04.107Z,98516.56
2022-10-30T09:13:34.595Z,98514.50
2022-10-30T09:16:04.263Z,98510.88
2022-10-30T09:18:34.225Z,98515.22
2022-10-30T09:21:04.559Z,98514.13
2022-10-30T09:23:37.283Z,98521.94
2022-10-30T09:26:30.093Z,98527.66
2022-10-30T09:29:19.921Z,98535.03
2022-10-30T09:31:59.059Z,98530.09
2022-10-30T09:37:10.415Z,98546.75
2022-10-30T09:39:38.713Z,98553.34
2022-10-30T09:42:10.286Z,98547.03
2022-10-30T09:47:57.715Z,98556.47
2022-10-30T09:50:41.125Z,98555.69
2022-10-30T09:53:31.119Z,98552.25
2022-10-30T09:56:18.160Z,98555.72
2022-10-30T09:59:10.042Z,98555.22
2022-10-30T10:01:54.426Z,98546.19
2022-10-30T10:04:44.501Z,98545.09
2022-10-30T10:07:20.417Z,98538.69
2022-10-30T10:10:00.298Z,98534.25
2022-10-30T10:12:58.684Z,98531.09
2022-10-30T10:15:33.200Z,98527.59
2022-10-30T10:18:02.599Z,98527.44
2022-10-30T10:20:41.261Z,98524.63
2022-10-30T10:23:29.910Z,98518.50
2022-10-30T10:26:00.866Z,98510.88
2022-10-30T10:28:47.703Z,98511.47
2022-10-30T10:31:38.583Z,98510.53
2022-10-30T10:34:41.593Z,98509.53
2022-10-30T10:37:28.324Z,98505.13
2022-10-30T10:55:27.028Z,98459.50
2022-10-30T10:57:58.309Z,98486.63
2022-10-30T11:00:28.241Z,98487.25
2022-10-30T11:03:10.662Z,98491.78
2022-10-30T11:05:57.532Z,98489.00
2022-10-30T11:08:37.702Z,98488.16
2022-10-30T11:11:06.506Z,98485.06
2022-10-30T11:13:40.141Z,98491.00
2022-10-30T11:16:25.733Z,98481.91
2022-10-30T11:19:02.258Z,98491.97
2022-10-30T11:21:38.607Z,98481.78
2022-10-30T11:24:26.739Z,98489.53
2022-10-30T11:26:56.825Z,98489.00
2022-10-30T11:29:26.836Z,98477.09
2022-10-30T11:32:05.546Z,98479.59
2022-10-30T11:34:37.456Z,98482.66
2022-10-30T11:40:48.448Z,98473.34
2022-10-30T11:43:20.715Z,98479.44
2022-10-30T11:45:48.031Z,98483.47
2022-10-30T11:48:34.287Z,98483.53
2022-10-30T11:51:04.433Z,98474.63
2022-10-30T11:53:35.154Z,98476.63
2022-10-30T11:56:04.920Z,98477.78
2022-10-30T11:58:37.913Z,98469.94
2022-10-30T12:01:19.312Z,98469.09
2022-10-30T12:03:46.267Z,98466.06
2022-10-30T12:06:29.373Z,98463.88
2022-10-30T12:09:11.217Z,98454.22
2022-10-30T12:11:39.984Z,98447.91
2022-10-30T12:14:06.815Z,98446.66
2022-10-30T12:16:33.916Z,98440.66
2022-10-30T12:19:08.716Z,98454.41
2022-10-30T12:21:39.904Z,98445.25
2022-10-30T12:24:16.810Z,98451.22
2022-10-30T12:26:57.107Z,98457.84
2022-10-30T12:30:07.480Z,98456.53
2022-10-30T12:33:04.437Z,98454.66
2022-10-30T12:35:37.121Z,98451.84
2022-10-30T12:38:13.671Z,98449.84
2022-10-30T12:40:58.824Z,98457.19
2022-10-30T12:43:30.164Z,98440.00
2022-10-30T12:46:16.551Z,98448.50
2022-10-30T12:48:56.344Z,98448.94
2022-10-30T12:51:39.942Z,98444.88
2022-10-30T12:54:32.278Z,98449.00
2022-10-30T12:57:20.866Z,98442.94
2022-10-30T13:00:15.951Z,98442.69
2022-10-30T13:03:16.660Z,98443.66
2022-10-30T13:08:25.489Z,98431.34
2022-10-30T13:11:17.207Z,98428.47
2022-10-30T13:13:49.277Z,98419.91
2022-10-30T13:16:30.116Z,98423.91
2022-10-30T13:19:00.151Z,98428.28
2022-10-30T13:21:31.509Z,98434.75
2022-10-30T13:24:09.112Z,98428.44
2022-10-30T13:26:41.829Z,98434.66
2022-10-30T13:29:26.781Z,98433.69
2022-10-30T13:32:08.114Z,98438.28
2022-10-30T13:34:40.840Z,98432.03
2022-10-30T13:37:19.758Z,98432.59
2022-10-30T13:39:58.392Z,98423.75
2022-10-30T13:42:36.659Z,98424.13
2022-10-30T13:45:04.126Z,98422.63
2022-10-30T13:47:31.016Z,98422.34
2022-10-30T13:50:22.091Z,98415.06
2022-10-30T13:52:57.263Z,98405.13
2022-10-30T13:55:29.545Z,98411.47
2022-10-30T13:58:25.855Z,98414.81
2022-10-30T14:01:20.211Z,98413.72
2022-10-30T14:04:05.337Z,98417.63
2022-10-30T14:06:45.923Z,98424.41
2022-10-30T14:09:31.842Z,98423.69
2022-10-30T14:12:40.674Z,98422.03
2022-10-30T14:15:18.785Z,98418.16
2022-10-30T14:18:24.593Z,98419.06
2022-10-30T14:20:53.113Z,98418.44
2022-10-30T14:23:19.756Z,98420.56
2022-10-30T14:26:04.664Z,98421.59
2022-10-30T14:28:45.247Z,98426.88
2022-10-30T14:31:16.753Z,98424.28
2022-10-30T14:33:52.495Z,98421.03
2022-10-30T14:36:35.546Z,98423.38
2022-10-30T14:39:16.055Z,98421.75
2022-10-30T14:41:55.506Z,98423.97
2022-10-30T14:44:55.031Z,98424.03
2022-10-30T14:47:46.702Z,98431.03
2022-10-30T14:50:23.005Z,98427.31
2022-10-30T14:52:49.673Z,98431.88
2022-10-30T14:55:28.468Z,98432.91
2022-10-30T14:58:01.364Z,98424.91
2022-10-30T15:00:29.350Z,98416.91
2022-10-30T15:03:12.216Z,98418.88
2022-10-30T15:05:59.825Z,98423.72
2022-10-30T15:08:26.499Z,98422.00
2022-10-30T15:11:18.129Z,98421.03
2022-10-30T15:14:21.045Z,98417.19
2022-10-30T15:16:58.773Z,98419.28
2022-10-30T15:19:30.176Z,98408.22
2022-10-30T15:21:58.975Z,98403.66
2022-10-30T15:24:32.358Z,98411.13
2022-10-30T15:27:01.438Z,98412.16
2022-10-30T15:29:32.209Z,98400.41
2022-10-30T15:32:16.279Z,98404.19
2022-10-30T15:35:00.467Z,98416.19
2022-10-30T15:37:27.759Z,98411.72
2022-10-30T15:40:19.617Z,98414.13
2022-10-30T15:42:51.051Z,98412.78
2022-10-30T15:45:25.573Z,98413.03
2022-10-30T15:48:00.975Z,98421.56
2022-10-30T15:50:28.278Z,98420.91
2022-10-30T15:52:55.617Z,98418.38
2022-10-30T15:55:28.299Z,98417.38
2022-10-30T15:58:03.827Z,98428.28
2022-10-30T16:00:34.337Z,98422.72
2022-10-30T16:03:22.628Z,98421.22
2022-10-30T16:05:49.750Z,98423.41
2022-10-30T16:08:22.598Z,98421.03
2022-10-30T16:10:53.145Z,98419.66
2022-10-30T16:13:31.306Z,98418.59
2022-10-30T16:16:00.681Z,98415.00
2022-10-30T16:18:32.503Z,98423.91
2022-10-30T16:21:06.467Z,98420.88
2022-10-30T16:23:40.161Z,98414.47
2022-10-30T16:26:06.903Z,98412.59
2022-10-30T16:28:37.583Z,98419.94
2022-10-30T16:31:16.097Z,98422.25
2022-10-30T16:33:44.670Z,98415.00
2022-10-30T16:36:18.638Z,98416.00
2022-10-30T16:38:48.626Z,98411.91
2022-10-30T16:41:15.909Z,98415.38
2022-10-30T16:44:04.126Z,98418.47
2022-10-30T16:46:38.039Z,98419.81
2022-10-30T16:49:12.842Z,98420.34
2022-10-30T16:51:43.166Z,98421.66
2022-10-30T16:54:27.409Z,98416.13
2022-10-30T16:56:56.752Z,98420.13
2022-10-30T16:59:26.538Z,98427.16
2022-10-30T17:01:56.109Z,98418.59
2022-10-30T17:04:22.882Z,98417.03
2022-10-30T17:06:50.694Z,98426.06
2022-10-30T17:09:25.651Z,98416.13
2022-10-30T17:12:14.367Z,98420.09
2022-10-30T17:14:43.814Z,98418.44
2022-10-30T17:17:28.457Z,98423.31
2022-10-30T17:19:58.505Z,98417.97
2022-10-30T17:22:32.495Z,98428.81
2022-10-30T17:25:00.015Z,98429.28
2022-10-30T17:27:36.257Z,98436.47
2022-10-30T17:30:04.880Z,98442.56
2022-10-30T17:32:43.306Z,98451.22
2022-10-30T17:35:15.726Z,98445.44
2022-10-30T17:37:43.737Z,98441.78
2022-10-30T17:40:12.394Z,98451.09
2022-10-30T17:42:39.477Z,98449.16
2022-10-30T17:45:10.434Z,98451.28
2022-10-30T17:47:37.821Z,98448.53
2022-10-30T17:50:05.633Z,98454.28
2022-10-30T17:52:33.433Z,98456.19
2022-10-30T17:55:03.558Z,98455.03
2022-10-30T17:57:30.280Z,98453.53
2022-10-30T17:59:56.877Z,98455.69
2022-10-30T18:02:23.868Z,98465.69
2022-10-30T18:04:52.557Z,98459.56
2022-10-30T18:07:19.424Z,98478.66
2022-10-30T18:09:46.647Z,98473.72
2022-10-30T18:12:17.366Z,98472.94
2022-10-30T18:14:47.759Z,98481.38
2022-10-30T18:17:16.070Z,98475.59
2022-10-30T18:19:44.545Z,98476.44
2022-10-30T18:22:11.282Z,98478.28
2022-10-30T18:24:37.849Z,98478.28
2022-10-30T18:27:04.497Z,98479.97
2022-10-30T18:29:31.321Z,98487.81
2022-10-30T18:31:57.993Z,98481.53
2022-10-30T18:34:24.566Z,98483.06
2022-10-30T18:36:51.344Z,98479.81
2022-10-30T18:39:18.545Z,98477.03
2022-10-30T18:41:46.606Z,98481.66
2022-10-30T18:44:19.327Z,98481.38
2022-10-30T18:46:46.588Z,98482.09
2022-10-30T18:49:13.431Z,98480.69
2022-10-30T18:51:41.489Z,98478.41
2022-10-30T18:54:14.713Z,98474.63
2022-10-30T18:56:43.995Z,98478.44
2022-10-30T18:59:11.310Z,98483.63
2022-10-30T19:01:38.252Z,98469.88
2022-10-30T19:04:09.872Z,98475.72
2022-10-30T19:06:38.605Z,98468.44
2022-10-30T19:09:05.530Z,98462.94
2022-10-30T19:11:32.728Z,98457.91
2022-10-30T19:13:59.731Z,98464.63
2022-10-30T19:16:27.708Z,98456.03
2022-10-30T19:18:54.367Z,98457.44
2022-10-30T19:21:23.465Z,98458.28
2022-10-30T19:23:50.544Z,98447.38
2022-10-30T19:26:17.857Z,98459.69
2022-10-30T19:28:45.822Z,98451.03
2022-10-30T19:31:14.642Z,98447.91
2022-10-30T19:33:41.925Z,98457.50
2022-10-30T19:36:32.601Z,98457.91
2022-10-30T19:39:05.793Z,98454.13
2022-10-30T19:41:40.406Z,98452.16
2022-10-30T19:44:07.195Z,98448.53
2022-10-30T19:46:34.497Z,98451.06
2022-10-30T19:49:01.636Z,98458.50
2022-10-30T19:51:32.246Z,98460.03
2022-10-30T19:54:01.667Z,98451.72
2022-10-30T19:56:28.436Z,98456.94
2022-10-30T19:58:55.067Z,98464.94
2022-10-30T20:01:22.279Z,98459.44
2022-10-30T20:03:49.001Z,98453.81
2022-10-30T20:06:16.014Z,98451.16
2022-10-30T20:08:42.580Z,98461.13
2022-10-30T20:11:09.150Z,98465.34
2022-10-30T20:13:37.238Z,98461.69
2022-10-30T20:16:05.661Z,98470.53
2022-10-30T20:18:36.259Z,98459.72
2022-10-30T20:21:09.934Z,98464.78
2022-10-30T20:23:37.151Z,98472.06
2022-10-30T20:26:13.715Z,98467.00
2022-10-30T20:28:42.196Z,98477.09
2022-10-30T20:31:12.137Z,98471.88
2022-10-30T20:33:39.308Z,98466.28
2022-10-30T20:36:06.174Z,98470.06
2022-10-30T20:38:34.063Z,98473.28
2022-10-30T20:41:03.847Z,98482.91
2022-10-30T20:43:36.025Z,98477.44
2022-10-30T20:46:04.948Z,98478.28
2022-10-30T20:48:32.304Z,98480.66
2022-10-30T20:51:01.119Z,98480.22
2022-10-30T20:53:28.905Z,98473.75
2022-10-30T20:55:55.610Z,98480.09
2022-10-30T20:58:22.390Z,98471.53
2022-10-30T21:00:50.195Z,98468.44
2022-10-30T21:03:17.121Z,98475.53
2022-10-30T21:05:46.020Z,98471.91
2022-10-30T21:08:14.300Z,98484.00
2022-10-30T21:10:41.751Z,98472.63
2022-10-30T21:13:09.999Z,98484.41
2022-10-30T21:15:44.688Z,98479.91
2022-10-30T21:18:14.517Z,98479.91
2022-10-30T21:20:41.274Z,98470.84
2022-10-30T21:23:08.725Z,98475.38
2022-10-30T21:25:35.998Z,98470.88
2022-10-30T21:28:04.177Z,98475.06
2022-10-30T21:30:30.808Z,98477.31
2022-10-30T21:32:58.882Z,98476.75
2022-10-30T21:35:26.228Z,98476.78
2022-10-30T21:37:53.169Z,98474.53
2022-10-30T21:40:19.816Z,98473.94
2022-10-30T21:42:49.567Z,98469.47
2022-10-30T21:45:16.321Z,98469.91
2022-10-30T21:47:42.936Z,98471.00
2022-10-30T21:50:12.145Z,98479.84
2022-10-30T21:52:39.563Z,98483.34
2022-10-30T21:55:06.416Z,98474.50
2022-10-30T21:57:33.321Z,98469.38
2022-10-30T22:00:03.516Z,98484.53
2022-10-30T22:02:35.289Z,98477.28
2022-10-30T22:05:01.925Z,98482.81
2022-10-30T22:07:28.599Z,98476.03
2022-10-30T22:09:55.397Z,98483.22
2022-10-30T22:12:22.038Z,98477.19
2022-10-30T22:14:48.664Z,98477.19
2022-10-30T22:17:15.545Z,98476.34
2022-10-30T22:19:42.136Z,98470.13
2022-10-30T22:22:09.221Z,98470.13
2022-10-30T22:24:35.898Z,98461.69
2022-10-30T22:27:02.494Z,98465.06
2022-10-30T22:29:29.170Z,98473.91
2022-10-30T22:31:55.920Z,98464.41
2022-10-30T22:34:22.548Z,98461.44
2022-10-30T22:36:49.258Z,98474.88
2022-10-30T22:39:15.901Z,98474.31
2022-10-30T22:41:42.661Z,98479.09
2022-10-30T22:44:13.017Z,98468.88
2022-10-30T22:46:40.274Z,98467.75
2022-10-30T22:49:07.650Z,98469.88
2022-10-30T22:51:37.486Z,98468.31
2022-10-30T22:54:06.919Z,98468.75
2022-10-30T22:56:35.830Z,98468.63
2022-10-30T22:59:05.653Z,98466.22
2022-10-30T23:01:34.601Z,98472.84
2022-10-30T23:04:03.669Z,98472.13
2022-10-30T23:06:31.501Z,98479.44
2022-10-30T23:09:01.277Z,98475.31
2022-10-30T23:11:29.261Z,98477.44
2022-10-30T23:13:56.518Z,98474.09
2022-10-30T23:16:25.625Z,98474.44
2022-10-30T23:18:55.140Z,98482.44
2022-10-30T23:21:23.842Z,98473.41
2022-10-30T23:23:50.582Z,98483.28
2022-10-30T23:26:22.670Z,98483.22
2022-10-30T23:28:51.503Z,98482.56
2022-10-30T23:31:27.942Z,98483.56
2022-10-30T23:33:57.699Z,98481.47
2022-10-30T23:36:25.060Z,98477.69
2022-10-30T23:38:56.018Z,98484.97
2022-10-30T23:41:24.988Z,98489.06
2022-10-30T23:44:00.391Z,98484.16
2022-10-30T23:46:27.633Z,98481.47
2022-10-30T23:48:54.646Z,98481.63
2022-10-30T23:51:21.467Z,98488.81
2022-10-30T23:53:48.430Z,98491.50
2022-10-30T23:56:16.103Z,98499.63
2022-10-30T23:58:45.127Z,98493.34
